Time;durP1;ratioP1;P1;durP2;ratioP2;P2;SDS_P1;SDS_P2;PMS_P1;PMS_P2;Temp;Humidity;BMP_temperature;BMP_pressure;BME280_temperature;BME280_humidity;BME280_pressure;Samples;Min_cycle;Max_cycle;Signal;HPM_P1;HPM_P2
2022/01/13 00:02:16;;;;;;;7.57;2.75;;;;;;;3.69;93.32;104298.00;4994943;28;97847;-41
2022/01/13 00:04:41;;;;;;;4.78;2.28;;;;;;;3.67;93.92;104302.44;4994837;28;96575;-41
2022/01/13 00:07:06;;;;;;;8.93;2.13;;;;;;;3.66;94.13;104286.31;4994510;28;96788;-41
2022/01/13 00:09:32;;;;;;;6.35;2.22;;;;;;;3.71;93.73;104290.00;4993787;28;98695;-41
2022/01/13 00:11:58;;;;;;;5.45;2.35;;;;;;;3.67;93.64;104301.50;4994582;28;97329;-41
2022/01/13 00:14:40;;;;;;;8.70;1.88;;;;;;;3.70;93.78;104304.28;4994635;28;96565;-41
2022/01/13 00:17:11;;;;;;;4.55;2.17;;;;;;;3.64;93.88;104294.31;4993085;28;97063;-41
2022/01/13 00:22:18;;;;;;;5.93;1.73;;;;;;;3.56;94.02;104283.41;4994458;28;97754;-41
2022/01/13 00:24:46;;;;;;;3.80;1.58;;;;;;;3.65;94.29;104295.19;4994374;28;96578;-41
2022/01/13 00:27:13;;;;;;;3.42;1.42;;;;;;;3.67;94.31;104286.34;4993197;28;96827;-40
2022/01/13 00:29:42;;;;;;;12.25;3.63;;;;;;;3.72;94.29;104292.72;4994088;28;98016;-40
2022/01/13 00:32:09;;;;;;;7.10;2.17;;;;;;;3.60;93.92;104265.66;4992602;28;99269;-41
2022/01/13 00:34:35;;;;;;;8.55;2.97;;;;;;;3.65;93.83;104274.69;4992216;28;96857;-41
2022/01/13 00:37:00;;;;;;;8.50;1.90;;;;;;;3.74;94.25;104282.00;4994248;28;96727;-41
2022/01/13 00:39:25;;;;;;;5.18;2.53;;;;;;;3.74;93.95;104280.25;4993739;28;110170;-41
2022/01/13 00:41:51;;;;;;;6.28;2.78;;;;;;;3.61;93.97;104257.63;4993587;28;102639;-40
2022/01/13 00:44:20;;;;;;;10.10;3.08;;;;;;;3.73;94.01;104275.75;4994265;28;96475;-41
2022/01/13 00:46:55;;;;;;;7.68;3.15;;;;;;;3.79;94.01;104278.59;4993839;28;97090;-41
2022/01/13 00:49:20;;;;;;;11.18;3.83;;;;;;;3.77;93.83;104277.66;4994029;28;97921;-41
2022/01/13 00:51:46;;;;;;;7.53;3.58;;;;;;;3.77;94.20;104277.66;4993378;28;123902;-41
2022/01/13 00:54:11;;;;;;;6.97;2.60;;;;;;;3.63;93.93;104254.97;4993995;28;96595;-41
2022/01/13 00:56:38;;;;;;;3.20;2.05;;;;;;;3.79;93.65;104293.75;4993423;28;96868;-41
2022/01/13 00:59:07;;;;;;;4.32;2.17;;;;;;;3.76;93.77;104289.22;4991830;28;101481;-41
2022/01/13 01:01:39;;;;;;;8.48;1.90;;;;;;;3.71;93.50;104277.50;4992290;28;100789;-40
2022/01/13 01:04:05;;;;;;;8.93;2.92;;;;;;;3.71;93.67;104273.91;4992601;28;96685;-41
2022/01/13 01:06:31;;;;;;;10.73;2.58;;;;;;;3.74;94.30;104282.00;4992344;28;96746;-41
2022/01/13 01:08:57;;;;;;;4.10;2.03;;;;;;;3.76;93.78;104296.38;4993365;28;97912;-41
2022/01/13 01:11:25;;;;;;;9.35;3.33;;;;;;;3.72;93.66;104295.41;4992705;28;97318;-41
2022/01/13 01:13:52;;;;;;;7.85;1.70;;;;;;;3.64;94.22;104274.66;4992146;28;96688;-41
2022/01/13 01:16:18;;;;;;;4.70;1.80;;;;;;;3.76;94.67;104294.56;4992632;28;96806;-41
2022/01/13 01:28:51;;;;;;;7.63;2.72;;;;;;;3.73;94.52;104294.53;4991921;28;97856;-41
2022/01/13 01:31:23;;;;;;;7.43;2.77;;;;;;;3.66;94.19;104281.84;4991925;28;100845;-41
2022/01/13 01:34:00;;;;;;;5.72;3.00;;;;;;;3.58;93.96;104262.03;4992462;28;96815;-41
2022/01/13 01:36:25;;;;;;;3.30;1.35;;;;;;;3.73;94.32;104296.31;4993571;28;96494;-41
2022/01/13 01:38:53;;;;;;;4.13;2.05;;;;;;;3.72;94.34;104289.13;4991027;28;115904;-41
2022/01/13 01:41:18;;;;;;;9.55;3.58;;;;;;;3.73;94.73;104290.94;4991768;28;100902;-41
2022/01/13 01:43:44;;;;;;;8.48;2.50;;;;;;;3.70;94.27;104286.41;4992505;28;96475;-41
2022/01/13 01:46:09;;;;;;;15.43;4.53;;;;;;;3.67;94.62;104278.31;4992919;28;96843;-41
2022/01/13 01:48:36;;;;;;;3.50;1.20;;;;;;;3.71;94.11;104288.22;4992641;28;98128;-40
2022/01/13 01:51:04;;;;;;;5.60;2.10;;;;;;;3.58;94.45;104270.97;4992851;28;97920;-41
2022/01/13 01:53:30;;;;;;;13.25;2.55;;;;;;;3.80;94.33;104299.16;4991440;28;96580;-41
2022/01/13 01:55:56;;;;;;;5.43;1.80;;;;;;;3.83;94.21;104304.56;4991218;28;96906;-40
2022/01/13 01:58:22;;;;;;;4.55;2.28;;;;;;;3.89;94.18;104300.25;4991460;28;100900;-41
2022/01/13 02:00:48;;;;;;;7.25;2.90;;;;;;;3.77;94.03;104291.03;4991027;28;100307;-41
2022/01/13 02:03:15;;;;;;;13.20;2.80;;;;;;;3.71;94.32;104279.28;4993052;28;96555;-41
2022/01/13 02:05:40;;;;;;;11.40;3.80;;;;;;;3.76;94.20;104283.84;4991726;28;96921;-41
2022/01/13 02:08:06;;;;;;;17.58;5.22;;;;;;;3.77;93.74;104292.84;4992769;28;97987;-41
2022/01/13 02:10:31;;;;;;;6.50;2.40;;;;;;;3.86;94.11;104297.47;4992475;28;99279;-40
2022/01/13 02:13:03;;;;;;;6.18;2.72;;;;;;;3.87;94.00;104305.56;4992311;28;96740;-40
2022/01/13 02:15:32;;;;;;;;;;;;;;;3.88;94.26;104303.78;4993272;28;96642;-41
2022/01/13 02:18:00;;;;;;;6.38;1.77;;;;;;;3.74;94.19;104280.25;4992563;28;97946;-41
2022/01/13 02:20:44;;;;;;;10.52;3.75;;;;;;;3.71;94.01;104280.16;4990838;28;100673;-41
2022/01/13 02:23:09;;;;;;;4.00;2.05;;;;;;;3.85;94.39;104295.69;4991262;28;96739;-41
2022/01/13 02:25:35;;;;;;;13.23;3.03;;;;;;;3.80;94.08;104284.84;4992319;28;96837;-41
2022/01/13 02:28:00;;;;;;;4.50;2.75;;;;;;;3.86;94.64;104289.44;4992052;28;100436;-41
2022/01/13 02:30:25;;;;;;;5.28;2.53;;;;;;;3.71;93.89;104266.75;4992602;28;104592;-41
2022/01/13 02:32:51;;;;;;;4.80;2.80;;;;;;;3.74;93.93;104265.94;4991946;28;96784;-41
2022/01/13 02:35:16;;;;;;;7.75;2.33;;;;;;;3.73;94.29;104270.38;4991718;28;117944;-41
2022/01/13 02:37:42;;;;;;;3.17;1.73;;;;;;;3.90;94.25;104284.16;4990576;28;100364;-41
2022/01/13 02:40:08;;;;;;;13.60;3.65;;;;;;;3.78;94.10;104249.03;4992123;28;97889;-41
2022/01/13 02:42:33;;;;;;;4.03;2.00;;;;;;;3.71;94.05;104229.22;4990866;28;96788;-40
2022/01/13 02:45:03;;;;;;;16.08;3.88;;;;;;;3.78;94.09;104244.59;4992366;28;96741;-41
2022/01/13 02:50:11;;;;;;;6.03;2.63;;;;;;;3.81;94.39;104258.06;4991210;28;97833;-41
2022/01/13 02:52:37;;;;;;;11.77;3.10;;;;;;;3.83;94.45;104253.63;4990627;28;96671;-41
2022/01/13 02:55:04;;;;;;;13.55;2.60;;;;;;;3.82;94.45;104257.19;4990545;28;96967;-41
2022/01/13 02:57:31;;;;;;;6.47;2.53;;;;;;;3.74;94.05;104236.44;4991498;28;100899;-41
2022/01/13 02:59:56;;;;;;;8.50;2.40;;;;;;;3.88;93.99;104266.25;4990557;28;100964;-41
2022/01/13 03:02:28;;;;;;;5.72;2.65;;;;;;;3.88;94.32;104256.41;4990763;28;117179;-41
2022/01/13 03:04:54;;;;;;;7.10;3.13;;;;;;;3.86;94.30;104258.16;4990671;28;96757;-41
2022/01/13 03:07:20;;;;;;;5.28;1.67;;;;;;;3.79;94.07;104243.72;4991022;28;124043;-41
2022/01/13 03:09:45;;;;;;;8.88;2.17;;;;;;;3.78;94.19;104236.53;4991799;28;97121;-41
2022/01/13 03:12:11;;;;;;;10.68;3.50;;;;;;;3.85;94.21;104252.78;4991927;28;96670;-41
2022/01/13 03:14:36;;;;;;;11.13;2.30;;;;;;;3.74;94.04;104228.38;4990720;28;96881;-41
2022/01/13 03:17:01;;;;;;;10.77;4.25;;;;;;;3.78;94.49;104238.31;4991968;28;98143;-41
2022/01/13 03:19:27;;;;;;;8.07;3.40;;;;;;;3.73;94.68;104229.28;4992331;28;97291;-41
2022/01/13 03:21:52;;;;;;;7.03;2.58;;;;;;;3.83;94.36;104233.97;4991830;28;96503;-41
2022/01/13 03:24:17;;;;;;;4.90;1.95;;;;;;;3.78;94.35;104228.50;4991602;28;111180;-40
2022/01/13 03:26:44;;;;;;;11.43;3.10;;;;;;;3.78;94.79;104223.13;4989596;28;102598;-40
2022/01/13 03:31:35;;;;;;;8.57;3.85;;;;;;;3.89;94.57;104239.47;4991787;28;96540;-41
2022/01/13 03:34:00;;;;;;;5.68;2.47;;;;;;;3.83;94.15;104224.13;4990365;28;120348;-41
2022/01/13 03:36:26;;;;;;;8.07;3.08;;;;;;;3.75;94.42;104217.72;4991445;28;98968;-40
2022/01/13 03:38:53;;;;;;;8.52;2.53;;;;;;;3.81;94.26;104220.53;4989971;28;99055;-41
2022/01/13 03:41:24;;;;;;;11.48;2.63;;;;;;;3.90;94.74;104232.31;4991779;28;96478;-41
2022/01/13 03:43:52;;;;;;;5.77;2.43;;;;;;;3.93;94.36;104235.97;4992116;28;96824;-41
2022/01/13 03:46:18;;;;;;;7.47;2.17;;;;;;;3.91;94.14;104231.44;4991436;28;98148;-41
2022/01/13 03:48:43;;;;;;;9.93;3.25;;;;;;;3.77;94.70;104207.94;4989953;28;101351;-40
2022/01/13 03:51:09;;;;;;;11.38;3.28;;;;;;;3.88;94.59;104234.94;4991123;28;96663;-41
2022/01/13 03:53:52;;;;;;;9.93;2.08;;;;;;;3.93;94.44;104237.72;4991508;28;96728;-41
2022/01/13 03:56:42;;;;;;;8.38;2.45;;;;;;;3.71;94.40;104198.84;4991104;28;97967;-40
2022/01/13 03:59:35;;;;;;;10.02;2.65;;;;;;;3.95;94.57;104249.41;4991208;28;97237;-41
2022/01/13 04:02:07;;;;;;;14.50;4.00;;;;;;;3.93;94.75;104243.09;4990063;28;96524;-41
2022/01/13 04:04:52;;;;;;;11.95;3.78;;;;;;;3.91;94.16;104245.78;4990047;28;96693;-41
2022/01/13 04:07:24;;;;;;;6.05;2.20;;;;;;;3.88;94.52;104224.22;4993143;28;101405;-41
2022/01/13 04:09:49;;;;;;;11.52;3.42;;;;;;;3.87;94.98;104237.63;4994791;28;98829;-41
2022/01/13 04:12:16;;;;;;;6.63;2.67;;;;;;;3.66;94.63;104208.56;4994500;28;96546;-41
2022/01/13 04:17:09;;;;;;;6.15;3.22;;;;;;;3.84;94.36;104233.09;4993960;28;97905;-41
2022/01/13 04:19:34;;;;;;;11.13;3.33;;;;;;;3.87;94.53;104243.00;4992916;28;101178;-41
2022/01/13 04:21:59;;;;;;;6.72;2.67;;;;;;;3.74;94.44;104215.91;4994535;28;96486;-41
2022/01/13 04:24:25;;;;;;;5.90;3.03;;;;;;;3.63;94.53;104197.78;4994442;28;96693;-41
2022/01/13 04:26:53;;;;;;;13.20;3.58;;;;;;;3.88;94.31;104239.41;4993746;28;111926;-41
2022/01/13 04:29:27;;;;;;;8.30;3.22;;;;;;;3.84;94.69;104222.38;4992710;28;100847;-41
2022/01/13 04:31:54;;;;;;;4.30;2.05;;;;;;;3.74;94.86;104209.63;4994470;28;96617;-41
2022/01/13 04:34:19;;;;;;;12.40;3.78;;;;;;;3.77;94.38;104215.06;4994445;28;96793;-40
2022/01/13 04:36:45;;;;;;;18.33;3.78;;;;;;;3.78;94.51;104220.44;4994279;28;97909;-41
2022/01/13 04:39:14;;;;;;;16.88;3.95;;;;;;;3.83;94.30;104232.16;4992269;28;100494;-40
2022/01/13 04:41:40;;;;;;;5.82;2.40;;;;;;;3.74;94.38;104231.06;4992184;28;97371;-41
2022/01/13 04:44:08;;;;;;;4.68;1.98;;;;;;;3.74;94.71;104225.72;4992599;28;96895;-40
2022/01/13 04:46:33;;;;;;;7.13;2.22;;;;;;;3.75;94.59;104232.91;4992516;28;100634;-41
2022/01/13 04:49:00;;;;;;;2.95;2.20;;;;;;;3.83;94.99;104248.25;4991853;28;120222;-41
2022/01/13 04:51:26;;;;;;;6.63;2.55;;;;;;;3.83;94.96;104250.94;4992467;28;96643;-41
2022/01/13 04:53:58;;;;;;;3.47;1.55;;;;;;;3.89;94.54;104243.94;4992186;28;96862;-41
2022/01/13 04:56:45;;;;;;;7.15;2.67;;;;;;;3.75;94.98;104228.44;4993269;28;98111;-40
2022/01/13 04:59:11;;;;;;;6.10;3.10;;;;;;;3.83;95.00;104250.94;4992686;28;100877;-41
2022/01/13 05:01:37;;;;;;;10.30;2.83;;;;;;;3.65;94.56;104218.41;4992505;28;96567;-41
2022/01/13 05:04:03;;;;;;;15.82;4.38;;;;;;;3.78;94.71;104243.69;4992209;28;98992;-41
2022/01/13 05:06:28;;;;;;;5.00;2.85;;;;;;;3.86;94.75;104259.94;4991736;28;100665;-41
2022/01/13 05:08:54;;;;;;;10.70;3.67;;;;;;;3.68;94.55;104225.59;4992166;28;99134;-41
2022/01/13 05:11:20;;;;;;;4.93;3.22;;;;;;;3.75;95.15;104236.47;4993869;28;96476;-41
2022/01/13 05:13:46;;;;;;;7.32;2.60;;;;;;;3.83;94.59;104239.31;4993771;28;96758;-41
2022/01/13 05:16:20;;;;;;;9.95;2.92;;;;;;;3.77;95.46;104234.75;4991673;28;100945;-40
2022/01/13 05:21:37;;;;;;;5.78;3.00;;;;;;;3.70;94.80;104219.41;4993422;28;96590;-41
2022/01/13 05:24:02;;;;;;;3.17;1.63;;;;;;;3.71;94.53;104226.56;4992551;28;96753;-41
2022/01/13 05:26:27;;;;;;;8.43;3.38;;;;;;;3.69;95.01;104225.59;4993127;28;99513;-41
2022/01/13 05:28:53;;;;;;;7.10;3.35;;;;;;;3.71;95.07;104222.97;4992618;28;121228;-40
2022/01/13 05:31:18;;;;;;;6.38;2.70;;;;;;;3.83;94.89;104242.91;4992608;28;96712;-41
2022/01/13 05:33:43;;;;;;;7.88;2.97;;;;;;;3.71;94.64;104229.22;4991956;28;118076;-41
2022/01/13 05:36:09;;;;;;;6.65;3.03;;;;;;;3.79;94.42;104248.16;4992910;28;105942;-41
2022/01/13 05:38:34;;;;;;;6.80;2.88;;;;;;;3.73;94.54;104235.53;4993160;28;97736;-41
2022/01/13 05:40:59;;;;;;;8.32;3.03;;;;;;;3.76;94.80;104246.31;4993220;28;96755;-40
2022/01/13 05:43:25;;;;;;;12.38;3.17;;;;;;;3.71;94.58;104231.91;4993432;28;96556;-41
2022/01/13 05:45:51;;;;;;;7.00;2.75;;;;;;;3.78;95.13;104241.91;4992876;28;97939;-41
2022/01/13 05:48:16;;;;;;;9.15;3.63;;;;;;;3.85;95.19;104245.63;4992746;28;117888;-41
2022/01/13 05:50:42;;;;;;;6.78;2.60;;;;;;;3.73;94.46;104218.56;4993242;28;96771;-41
2022/01/13 05:53:07;;;;;;;13.85;5.65;;;;;;;3.65;94.66;104205.00;4993171;28;96838;-40
2022/01/13 05:55:33;;;;;;;13.00;4.22;;;;;;;3.64;94.95;104205.84;4990065;28;120182;-41
2022/01/13 05:57:59;;;;;;;6.70;3.05;;;;;;;3.72;94.99;104223.03;4974574;28;98841;-41
2022/01/13 06:00:24;;;;;;;6.25;2.45;;;;;;;3.81;94.90;104238.38;4992758;28;96630;-41
2022/01/13 06:02:51;;;;;;;8.02;3.75;;;;;;;3.88;94.89;104234.06;4992878;28;96695;-41
2022/01/13 06:05:17;;;;;;;11.15;3.22;;;;;;;3.88;94.81;104245.69;4991264;28;101661;-41
2022/01/13 06:07:42;;;;;;;14.93;4.97;;;;;;;3.88;94.84;104240.31;4991087;28;100062;-41
2022/01/13 06:10:10;;;;;;;7.18;3.22;;;;;;;3.84;94.72;104243.84;4992768;28;96605;-41
2022/01/13 06:12:37;;;;;;;8.93;2.35;;;;;;;3.86;95.41;104250.09;4991899;28;96902;-40
2022/01/13 06:15:11;;;;;;;12.18;2.70;;;;;;;3.76;95.23;104234.69;4992456;28;97819;-41
2022/01/13 06:17:38;;;;;;;8.25;2.97;;;;;;;3.72;94.77;104219.41;4991221;28;99329;-41
2022/01/13 06:20:09;;;;;;;17.95;4.88;;;;;;;3.83;94.62;104239.31;4990814;28;97120;-40
2022/01/13 06:22:36;;;;;;;11.35;2.83;;;;;;;3.87;95.23;104245.66;4991159;28;96930;-41
2022/01/13 06:25:04;;;;;;;12.23;5.45;;;;;;;3.82;95.06;104230.38;4991103;28;100941;-41
2022/01/13 06:27:29;;;;;;;12.55;4.18;;;;;;;3.77;94.97;104221.34;4992004;28;97685;-41
2022/01/13 06:29:54;;;;;;;9.30;4.05;;;;;;;3.85;94.92;104234.00;4991839;28;96530;-41
2022/01/13 06:32:21;;;;;;;11.25;3.85;;;;;;;3.85;95.10;104224.19;4992353;28;99918;-41
2022/01/13 06:34:53;;;;;;;6.15;2.90;;;;;;;3.88;95.22;104234.06;4990691;28;100842;-41
2022/01/13 06:37:19;;;;;;;;;;;;;;;3.89;94.90;104235.88;4991511;28;100958;-41
2022/01/13 06:39:45;;;;;;;4.22;1.80;;;;;;;3.82;94.74;104219.66;4992365;28;96686;-40
2022/01/13 06:42:11;;;;;;;13.82;3.78;;;;;;;3.90;95.01;104232.31;4990864;28;96982;-41
2022/01/13 06:44:36;;;;;;;15.63;4.55;;;;;;;3.78;94.84;104206.16;4991755;28;97917;-40
2022/01/13 06:47:03;;;;;;;18.88;5.78;;;;;;;3.74;94.54;104213.25;4992266;28;97716;-40
2022/01/13 06:49:28;;;;;;;6.53;3.35;;;;;;;3.94;94.64;104250.28;4990843;28;96558;-41
2022/01/13 06:51:53;;;;;;;5.13;1.90;;;;;;;3.88;95.30;104234.06;4992572;28;96800;-41
2022/01/13 06:54:19;;;;;;;6.20;2.80;;;;;;;3.85;95.21;104229.53;4973455;28;125650;-41
2022/01/13 06:56:44;;;;;;;11.38;3.22;;;;;;;3.93;94.59;104233.31;4990511;28;120255;-40
2022/01/13 06:59:11;;;;;;;12.15;4.50;;;;;;;3.73;94.72;104208.72;4992204;28;96790;-41
2022/01/13 07:01:38;;;;;;;7.18;4.22;;;;;;;3.78;94.69;104223.13;4991097;28;96730;-41
2022/01/13 07:04:03;;;;;;;10.70;4.13;;;;;;;3.94;94.73;104239.56;4990420;28;101091;-41
2022/01/13 07:06:29;;;;;;;7.63;3.67;;;;;;;3.76;94.68;104211.47;4991962;28;97876;-41
2022/01/13 07:08:57;;;;;;;13.75;3.63;;;;;;;3.84;94.73;104222.38;4990476;28;123027;-41
2022/01/13 07:11:23;;;;;;;9.48;4.50;;;;;;;3.95;94.58;104247.63;4991931;28;96783;-41
2022/01/13 07:13:48;;;;;;;9.50;4.05;;;;;;;3.81;94.31;104228.59;4990580;28;128900;-41
2022/01/13 07:16:13;;;;;;;16.70;3.75;;;;;;;3.88;94.43;104252.81;4991151;28;117459;-41
2022/01/13 07:18:40;;;;;;;9.38;4.25;;;;;;;3.89;94.46;104249.28;4991964;28;96580;-41
2022/01/13 07:21:09;;;;;;;11.15;4.88;;;;;;;3.78;94.76;104230.28;4990316;28;96818;-41
2022/01/13 07:23:35;;;;;;;8.63;3.45;;;;;;;3.81;94.74;104239.31;4991626;28;97957;-41
2022/01/13 07:26:02;;;;;;;6.13;3.30;;;;;;;3.91;95.07;104256.50;4992078;28;97388;-41
2022/01/13 07:28:29;;;;;;;8.32;3.15;;;;;;;3.88;94.73;104256.41;4990361;28;96578;-41
2022/01/13 07:30:55;;;;;;;7.47;3.58;;;;;;;3.89;95.02;104257.34;4990218;28;96850;-41
2022/01/13 07:33:20;;;;;;;16.58;4.97;;;;;;;3.79;94.84;104241.06;4990905;28;97428;-41
2022/01/13 07:35:45;;;;;;;7.57;3.50;;;;;;;3.90;94.61;104252.00;4991233;28;109018;-41
2022/01/13 07:38:11;;;;;;;6.32;2.65;;;;;;;3.78;94.70;104235.63;4991402;28;96637;-41
2022/01/13 07:40:36;;;;;;;11.25;3.90;;;;;;;3.88;94.85;104244.78;4992216;28;103124;-41
2022/01/13 07:43:02;;;;;;;9.40;3.13;;;;;;;3.76;94.74;104230.22;4995007;28;98617;-41
2022/01/13 07:45:27;;;;;;;13.25;4.32;;;;;;;3.77;95.26;104229.38;4994943;28;97779;-41
2022/01/13 07:47:52;;;;;;;5.35;2.95;;;;;;;3.81;94.65;104244.66;4994487;28;111860;-40
2022/01/13 07:50:18;;;;;;;6.25;2.53;;;;;;;3.76;95.06;104224.88;4995125;28;111088;-41
2022/01/13 07:52:43;;;;;;;12.30;3.55;;;;;;;3.87;94.72;104243.00;4994205;28;115747;-41
2022/01/13 07:55:10;;;;;;;9.30;3.83;;;;;;;3.94;94.70;104252.97;4994326;28;97945;-40
2022/01/13 07:57:35;;;;;;;13.68;3.88;;;;;;;3.85;95.11;104244.72;4992867;28;97039;-40
2022/01/13 08:00:01;;;;;;;11.10;2.70;;;;;;;3.77;95.07;104242.78;4993443;28;96879;-41
2022/01/13 08:02:27;;;;;;;14.77;4.13;;;;;;;3.93;95.32;104268.16;4994655;28;97361;-40
2022/01/13 08:04:52;;;;;;;7.07;3.03;;;;;;;3.83;95.33;104250.94;4993070;28;100679;-41
2022/01/13 08:07:17;;;;;;;10.70;3.25;;;;;;;3.97;95.29;104266.44;4994030;28;113432;-41
2022/01/13 08:09:43;;;;;;;6.03;2.42;;;;;;;3.96;95.00;104260.19;4993925;28;121451;-41
2022/01/13 08:12:08;;;;;;;9.70;3.38;;;;;;;4.00;95.14;104270.09;4994221;28;104143;-41
2022/01/13 08:14:34;;;;;;;9.55;3.40;;;;;;;4.01;95.02;104266.53;4994655;28;99491;-41
2022/01/13 08:17:02;;;;;;;8.90;3.75;;;;;;;3.97;94.95;104261.97;4994582;28;96469;-41
2022/01/13 08:19:45;;;;;;;10.95;3.92;;;;;;;3.91;95.20;104247.53;4994351;28;96790;-41
2022/01/13 08:22:10;;;;;;;7.13;3.10;;;;;;;4.04;95.12;104265.69;4993690;28;98024;-40
2022/01/13 08:24:36;;;;;;;10.68;4.65;;;;;;;4.03;95.04;104255.84;4994186;28;99553;-40
2022/01/13 08:27:01;;;;;;;4.72;1.98;;;;;;;3.93;95.06;104241.34;4993825;28;122082;-41
2022/01/13 08:29:27;;;;;;;5.40;2.35;;;;;;;4.06;95.07;104266.63;4994426;28;97743;-40
2022/01/13 08:31:52;;;;;;;10.00;3.65;;;;;;;4.07;94.77;104264.84;4993247;28;123112;-41
2022/01/13 08:34:17;;;;;;;13.27;3.95;;;;;;;3.94;94.90;104239.56;4991610;28;122320;-41
2022/01/13 08:36:44;;;;;;;12.48;3.40;;;;;;;4.08;95.10;104270.25;4994076;28;96568;-41
2022/01/13 08:39:09;;;;;;;5.18;2.92;;;;;;;3.97;94.99;104251.25;4993070;28;96733;-41
2022/01/13 08:41:35;;;;;;;11.73;4.00;;;;;;;4.09;94.67;104272.06;4993806;28;99241;-41
2022/01/13 08:44:00;;;;;;;10.90;4.70;;;;;;;4.09;94.78;104282.78;4994145;28;100146;-40
2022/01/13 08:46:26;;;;;;;11.32;4.05;;;;;;;4.08;95.35;104275.63;4993669;28;96721;-41
2022/01/13 08:48:52;;;;;;;9.00;3.75;;;;;;;4.00;95.22;104253.09;4994029;28;96759;-41
2022/01/13 08:51:18;;;;;;;7.55;3.58;;;;;;;4.03;94.79;104263.91;4991920;28;101297;-41
2022/01/13 08:53:45;;;;;;;8.80;2.55;;;;;;;4.17;95.05;104280.25;4992318;28;99166;-40
2022/01/13 08:56:10;;;;;;;9.02;4.07;;;;;;;4.03;95.19;104266.59;4993800;28;96810;-40
2022/01/13 08:58:36;;;;;;;11.40;2.30;;;;;;;4.16;95.09;104284.72;4993947;28;96767;-41
2022/01/13 09:01:02;;;;;;;10.93;3.70;;;;;;;4.10;95.13;104271.19;4993651;28;99514;-40
2022/01/13 09:03:27;;;;;;;7.93;3.75;;;;;;;4.06;94.86;104257.69;4992535;28;101141;-40
2022/01/13 09:05:52;;;;;;;7.35;2.75;;;;;;;4.19;94.95;104297.28;4992911;28;122268;-41
2022/01/13 09:08:18;;;;;;;6.97;2.55;;;;;;;4.11;95.07;104272.09;4993601;28;101711;-41
2022/01/13 09:10:44;;;;;;;14.75;2.72;;;;;;;4.21;94.88;104283.03;4993096;28;97900;-40
2022/01/13 09:13:12;;;;;;;9.40;2.78;;;;;;;4.11;95.29;104264.94;4993327;28;98666;-40
2022/01/13 09:15:42;;;;;;;8.77;2.58;;;;;;;4.19;95.35;104276.72;4992186;28;96686;-41
2022/01/13 09:18:19;;;;;;;10.02;4.35;;;;;;;4.19;95.12;104276.72;4993773;28;96525;-41
2022/01/13 09:20:46;;;;;;;8.70;3.55;;;;;;;4.32;94.75;104301.16;4991979;28;100536;-40
2022/01/13 09:23:12;;;;;;;5.28;2.60;;;;;;;4.32;95.29;104298.47;4991857;28;100954;-40
2022/01/13 09:25:37;;;;;;;12.57;4.25;;;;;;;4.36;94.96;104297.63;4992202;28;96843;-41
2022/01/13 09:28:05;;;;;;;9.50;4.65;;;;;;;4.32;95.08;104283.28;4993790;28;96887;-41
2022/01/13 09:30:30;;;;;;;7.30;3.88;;;;;;;4.25;94.57;104290.28;4991906;28;101261;-41
2022/01/13 09:32:56;;;;;;;9.15;2.95;;;;;;;4.34;94.89;104296.69;4991190;28;100707;-40
2022/01/13 09:35:22;;;;;;;5.18;2.38;;;;;;;4.32;94.55;104277.00;4992957;28;96691;-41
2022/01/13 09:37:47;;;;;;;9.90;2.88;;;;;;;4.32;94.70;104280.59;4993210;28;96736;-40
2022/01/13 09:40:13;;;;;;;10.50;3.38;;;;;;;4.34;94.68;104281.53;4992716;28;99431;-41
2022/01/13 09:42:40;;;;;;;10.07;5.00;;;;;;;4.21;94.81;104263.34;4991514;28;100977;-41
2022/01/13 09:45:06;;;;;;;9.55;3.90;;;;;;;4.26;94.61;104267.03;4991716;28;96512;-41
2022/01/13 09:47:33;;;;;;;13.63;3.53;;;;;;;4.24;94.92;104269.69;4991657;28;96989;-41
2022/01/13 09:50:01;;;;;;;7.93;3.28;;;;;;;4.23;94.57;104266.97;4991569;28;100841;-40
2022/01/13 09:52:27;;;;;;;7.47;3.60;;;;;;;4.37;94.67;104283.38;4991825;28;100341;-40
2022/01/13 09:54:53;;;;;;;13.20;3.97;;;;;;;4.35;94.65;104288.69;4991534;28;96623;-41
2022/01/13 09:57:19;;;;;;;7.03;3.38;;;;;;;4.40;94.92;104302.19;4992532;28;96854;-41
2022/01/13 09:59:57;;;;;;;7.95;2.80;;;;;;;4.39;94.93;104297.72;4990753;28;101195;-41
2022/01/13 10:02:23;;;;;;;4.32;2.38;;;;;;;4.29;94.83;104274.22;4992328;28;97798;-40
2022/01/13 10:04:51;;;;;;;6.20;2.50;;;;;;;4.42;95.03;104301.34;4992108;28;96521;-41
2022/01/13 10:07:34;;;;;;;4.70;2.75;;;;;;;4.16;94.90;104267.72;4992915;28;96794;-41
2022/01/13 10:10:02;;;;;;;6.40;3.15;;;;;;;4.31;94.88;104275.19;4991237;28;101112;-41
2022/01/13 10:12:36;;;;;;;6.75;3.38;;;;;;;4.41;94.42;104286.13;4990846;28;100987;-41
2022/01/13 10:17:30;;;;;;;7.57;2.95;;;;;;;4.32;94.78;104261.81;4992891;28;96760;-41
2022/01/13 10:19:57;;;;;;;10.23;3.33;;;;;;;4.38;94.46;104272.63;4992270;28;107685;-40
2022/01/13 10:22:31;;;;;;;8.50;4.20;;;;;;;4.34;94.35;104261.81;4990952;28;101161;-41
2022/01/13 10:24:58;;;;;;;10.77;4.45;;;;;;;4.52;94.65;104282.75;4990406;28;97390;-41
2022/01/13 10:27:29;;;;;;;5.72;2.80;;;;;;;4.52;94.79;104282.75;4992477;28;96721;-41
2022/01/13 10:30:13;;;;;;;5.57;3.33;;;;;;;4.54;94.95;104289.06;4992331;28;99439;-41
2022/01/13 10:32:41;;;;;;;8.63;3.65;;;;;;;4.55;94.79;104282.81;4992141;28;97459;-41
2022/01/13 10:35:19;;;;;;;7.75;3.08;;;;;;;4.33;94.67;104241.22;4991099;28;96695;-41
2022/01/13 10:37:54;;;;;;;7.90;2.88;;;;;;;4.47;94.76;104253.13;4990853;28;98308;-41
2022/01/13 10:40:34;;;;;;;5.18;2.70;;;;;;;4.52;95.00;104253.22;4992288;28;97905;-41
2022/01/13 10:43:10;;;;;;;10.25;3.00;;;;;;;4.66;94.72;104274.06;4991178;28;101411;-41
2022/01/13 10:45:49;;;;;;;8.50;2.83;;;;;;;4.67;94.61;104286.63;4992247;28;96601;-40
2022/01/13 10:48:26;;;;;;;13.38;3.72;;;;;;;4.62;94.85;104274.91;4992036;28;96863;-41
2022/01/13 10:51:07;;;;;;;12.15;4.43;;;;;;;4.67;94.71;104270.53;4991833;28;97901;-41
2022/01/13 10:53:44;;;;;;;10.05;2.83;;;;;;;4.60;94.49;104265.91;4991852;28;99279;-41
2022/01/13 10:56:12;;;;;;;10.48;3.60;;;;;;;4.67;94.91;104273.22;4974163;28;96848;-41
2022/01/13 10:58:41;;;;;;;6.07;2.83;;;;;;;4.71;94.34;104275.94;4990774;28;96787;-41
2022/01/13 11:01:10;;;;;;;11.93;3.17;;;;;;;4.73;94.37;104274.19;4990436;28;101155;-41
2022/01/13 11:03:40;;;;;;;14.88;4.10;;;;;;;4.75;94.32;104270.66;4990489;28;98916;-41
2022/01/13 11:06:08;;;;;;;11.23;3.05;;;;;;;4.75;94.67;104272.44;4990707;28;97547;-40
2022/01/13 11:08:42;;;;;;;10.48;3.65;;;;;;;4.59;94.84;104248.00;4990938;28;96825;-41
2022/01/13 11:11:36;;;;;;;7.95;3.47;;;;;;;4.81;94.59;104261.81;4990542;28;100916;-41
2022/01/13 11:14:11;;;;;;;22.35;4.43;;;;;;;4.82;94.55;104269.91;4989895;28;101000;-40
2022/01/13 11:16:37;;;;;;;9.02;3.38;;;;;;;4.71;94.59;104244.63;4993767;28;96920;-41
2022/01/13 11:19:05;;;;;;;4.85;2.58;;;;;;;4.87;94.68;104267.28;4993868;28;96931;-41
2022/01/13 11:21:31;;;;;;;4.47;2.35;;;;;;;4.88;94.85;104264.59;4993731;28;100866;-41
2022/01/13 11:23:58;;;;;;;6.85;2.72;;;;;;;4.86;95.02;104257.41;4995391;28;97373;-40
2022/01/13 11:26:27;;;;;;;11.63;4.47;;;;;;;4.80;94.45;104244.78;4993872;28;96710;-41
2022/01/13 11:28:53;;;;;;;5.70;3.17;;;;;;;4.81;94.64;104238.53;4993929;28;97100;-41
2022/01/13 11:31:19;;;;;;;6.43;3.67;;;;;;;4.97;94.71;104260.28;4995317;28;97489;-41
2022/01/13 11:33:44;;;;;;;12.07;4.25;;;;;;;4.93;94.64;104259.31;4993250;28;99748;-41
2022/01/13 11:36:12;;;;;;;11.30;4.07;;;;;;;4.80;94.84;104231.34;4994348;28;122362;-41
2022/01/13 11:38:38;;;;;;;6.07;2.88;;;;;;;4.94;94.42;104258.47;4993722;28;97194;-41
2022/01/13 11:41:06;;;;;;;15.30;4.75;;;;;;;4.84;94.55;104243.97;4994207;28;99440;-41
2022/01/13 11:43:42;;;;;;;11.23;4.10;;;;;;;4.97;94.10;104254.91;4993429;28;100826;-41
2022/01/13 11:46:19;;;;;;;9.65;3.00;;;;;;;4.98;94.91;104254.97;4993307;28;96666;-41
2022/01/13 11:49:16;;;;;;;8.35;5.03;;;;;;;4.83;94.34;104225.13;4994952;28;96690;-41
2022/01/13 11:52:02;;;;;;;6.43;2.95;;;;;;;4.94;94.61;104239.66;4994987;28;98023;-41
2022/01/13 11:54:33;;;;;;;11.63;4.13;;;;;;;4.94;94.91;104228.91;4993146;28;100563;-40
2022/01/13 11:57:11;;;;;;;15.02;3.55;;;;;;;5.05;94.68;104238.06;4993051;28;96727;-41
2022/01/13 11:59:37;;;;;;;11.50;2.85;;;;;;;5.04;94.48;104238.91;4995058;28;96849;-41